createdAt,value
2023-04-23T00:00:54.867Z,9.762771
2023-04-23T00:01:54.429Z,9.762730
2023-04-23T00:02:53.514Z,9.762694
2023-04-23T00:03:53.497Z,9.762569
2023-04-23T00:04:53.510Z,9.762690
2023-04-23T00:05:54.400Z,9.762638
2023-04-23T00:06:53.379Z,9.763197
2023-04-23T00:07:53.357Z,9.763199
2023-04-23T00:08:53.358Z,9.762848
2023-04-23T00:09:53.360Z,9.762746
2023-04-23T00:10:53.328Z,9.762723
2023-04-23T00:11:53.335Z,9.762574
2023-04-23T00:12:53.312Z,9.762595
2023-04-23T00:13:53.304Z,9.762683
2023-04-23T00:14:53.288Z,9.762752
2023-04-23T00:15:53.402Z,9.762795
2023-04-23T00:16:53.276Z,9.762809
2023-04-23T00:17:53.341Z,9.762577
2023-04-23T00:18:53.329Z,9.762158
2023-04-23T00:19:53.245Z,9.762104
2023-04-23T00:20:53.224Z,9.760198
2023-04-23T00:21:53.225Z,9.760078
2023-04-23T00:22:53.202Z,9.761879
2023-04-23T00:23:53.190Z,9.762580
2023-04-23T00:24:53.187Z,9.763415
2023-04-23T00:25:53.172Z,9.763198
2023-04-23T00:26:53.182Z,9.763393
2023-04-23T00:27:53.161Z,9.763308
2023-04-23T00:28:53.141Z,9.763153
2023-04-23T00:29:53.136Z,9.762877
2023-04-23T00:30:53.128Z,9.762953
2023-04-23T00:31:53.179Z,9.762966
2023-04-23T00:32:53.146Z,9.762851
2023-04-23T00:33:53.093Z,9.762583
2023-04-23T00:34:53.090Z,9.761944
2023-04-23T00:35:53.068Z,9.763063
2023-04-23T00:36:53.081Z,9.762604
2023-04-23T00:37:53.066Z,9.763287
2023-04-23T00:38:53.049Z,9.762697
2023-04-23T00:39:53.052Z,9.762717
2023-04-23T00:40:53.056Z,9.762828
2023-04-23T00:41:53.036Z,9.762971
2023-04-23T00:42:53.014Z,9.762993
2023-04-23T00:43:53.026Z,9.762993
2023-04-23T00:44:53.000Z,9.762993
2023-04-23T00:45:53.015Z,9.762993
2023-04-23T00:46:52.983Z,9.762993
2023-04-23T00:47:52.991Z,9.762993
2023-04-23T00:48:52.957Z,9.762993
2023-04-23T00:49:52.945Z,9.762993
2023-04-23T00:50:52.935Z,9.762993
2023-04-23T00:51:52.938Z,9.762993
2023-04-23T00:52:52.923Z,9.762993
2023-04-23T00:53:52.924Z,9.762993
2023-04-23T00:54:52.897Z,9.762993
2023-04-23T00:55:52.901Z,9.762993
2023-04-23T00:56:52.900Z,9.762993
2023-04-23T00:57:52.871Z,9.762993
2023-04-23T00:58:52.855Z,9.762993
2023-04-23T00:59:52.862Z,9.762993
2023-04-23T01:00:52.862Z,9.762993
2023-04-23T01:01:53.840Z,9.762993
2023-04-23T01:02:53.031Z,9.762993
2023-04-23T01:03:53.057Z,9.762993
2023-04-23T01:04:52.800Z,9.762993
2023-04-23T01:05:52.782Z,9.762993
2023-04-23T01:06:52.791Z,9.762993
2023-04-23T01:07:52.775Z,9.762993
2023-04-23T01:08:52.767Z,9.762993
2023-04-23T01:09:52.745Z,9.762993
2023-04-23T01:10:52.759Z,9.762993
2023-04-23T01:11:52.736Z,9.762993
2023-04-23T01:12:52.723Z,9.762993
2023-04-23T01:13:52.708Z,9.762993
2023-04-23T01:14:52.701Z,9.762993
2023-04-23T01:15:52.704Z,9.762993
2023-04-23T01:16:52.759Z,9.762993
2023-04-23T01:17:52.751Z,9.762993
2023-04-23T01:18:52.663Z,9.762993
2023-04-23T01:19:52.650Z,9.762993
2023-04-23T01:20:52.660Z,9.762993
2023-04-23T01:21:52.636Z,9.762993
2023-04-23T01:22:52.625Z,9.762993
2023-04-23T01:23:52.621Z,9.762993
2023-04-23T01:24:52.602Z,9.762993
2023-04-23T01:25:52.641Z,9.762993
2023-04-23T01:26:52.587Z,9.762993
2023-04-23T01:27:52.583Z,9.762993
2023-04-23T01:28:52.578Z,9.762993
2023-04-23T01:29:52.557Z,9.762993
2023-04-23T01:30:52.569Z,9.762993
2023-04-23T01:31:52.546Z,9.762993
2023-04-23T01:32:52.558Z,9.762993
2023-04-23T01:33:52.517Z,9.762993
2023-04-23T01:34:52.509Z,9.762993
2023-04-23T01:35:52.513Z,9.762993
2023-04-23T01:36:52.489Z,9.762993
2023-04-23T01:37:52.540Z,9.762993
2023-04-23T01:38:52.466Z,9.762993
2023-04-23T01:39:52.466Z,9.762993
2023-04-23T01:40:52.462Z,9.762993
2023-04-23T01:41:52.439Z,9.762993
2023-04-23T01:42:52.472Z,9.762993
2023-04-23T01:43:52.427Z,9.762993
2023-04-23T01:44:52.399Z,9.762993
2023-04-23T01:45:52.451Z,9.762993
2023-04-23T01:46:52.388Z,9.762993
2023-04-23T01:47:52.388Z,9.762993
2023-04-23T01:48:52.367Z,9.762993
2023-04-23T01:49:52.362Z,9.762993
2023-04-23T01:50:52.357Z,9.762993
2023-04-23T01:51:52.332Z,9.762993
2023-04-23T01:52:52.333Z,9.762993
2023-04-23T01:53:52.316Z,9.762993
2023-04-23T01:54:52.308Z,9.762993
2023-04-23T01:55:52.301Z,9.762993
2023-04-23T01:56:52.285Z,9.762993
2023-04-23T01:57:52.273Z,9.762993
2023-04-23T01:58:52.268Z,9.762993
2023-04-23T01:59:52.255Z,9.762993
2023-04-23T02:00:52.267Z,9.762993
2023-04-23T02:01:52.252Z,9.762993
2023-04-23T02:02:52.369Z,9.762993
2023-04-23T02:03:52.301Z,9.762993
2023-04-23T02:04:52.209Z,9.762993
2023-04-23T02:05:52.206Z,9.762993
2023-04-23T02:06:52.202Z,9.762993
2023-04-23T02:07:52.200Z,9.762993
2023-04-23T02:08:52.165Z,9.762993
2023-04-23T02:09:52.150Z,9.762993
2023-04-23T02:10:52.156Z,9.762993
2023-04-23T02:11:52.136Z,9.762993
2023-04-23T02:12:52.121Z,9.762993
2023-04-23T02:13:52.112Z,9.762993
2023-04-23T02:14:52.116Z,9.762993
2023-04-23T02:15:52.131Z,9.762993
2023-04-23T02:16:52.097Z,9.762993
2023-04-23T02:17:52.128Z,9.762993
2023-04-23T02:18:52.066Z,9.762993
2023-04-23T02:19:52.059Z,9.762993
2023-04-23T02:20:52.056Z,9.762993
2023-04-23T02:21:52.033Z,9.762993
2023-04-23T02:22:53.041Z,9.762993
2023-04-23T02:23:52.010Z,9.762993
2023-04-23T02:24:52.007Z,9.762993
2023-04-23T02:25:52.009Z,9.762993
2023-04-23T02:26:51.989Z,9.762993
2023-04-23T02:27:51.964Z,9.762993
2023-04-23T02:28:52.000Z,9.762993
2023-04-23T02:29:51.960Z,9.762622
2023-04-23T02:30:51.962Z,9.762460
2023-04-23T02:31:51.986Z,9.762428
2023-04-23T02:32:51.959Z,9.762663
2023-04-23T02:33:51.917Z,9.762806
2023-04-23T02:34:51.900Z,9.762688
2023-04-23T02:35:51.889Z,9.762663
2023-04-23T02:36:51.880Z,9.762566
2023-04-23T02:37:51.869Z,9.762579
2023-04-23T02:38:51.864Z,9.762828
2023-04-23T02:39:51.849Z,9.762926
2023-04-23T02:40:52.851Z,9.762832
2023-04-23T02:41:51.835Z,9.762952
2023-04-23T02:42:51.810Z,9.762488
2023-04-23T02:43:51.807Z,9.763043
2023-04-23T02:44:51.796Z,9.762534
2023-04-23T02:45:51.793Z,9.762425
2023-04-23T02:46:51.837Z,9.762383
2023-04-23T02:47:51.809Z,9.762525
2023-04-23T02:48:51.762Z,9.762492
2023-04-23T02:49:51.785Z,9.762529
2023-04-23T02:50:51.740Z,9.762608
2023-04-23T02:51:51.746Z,9.762474
2023-04-23T02:52:51.727Z,9.762743
2023-04-23T02:53:51.703Z,9.762719
2023-04-23T02:54:51.695Z,9.762568
2023-04-23T02:55:51.683Z,9.762339
2023-04-23T02:56:51.690Z,9.762470
2023-04-23T02:57:51.651Z,9.762268
2023-04-23T02:58:52.675Z,9.762178
2023-04-23T02:59:51.644Z,9.762209
2023-04-23T03:00:51.684Z,9.762595
2023-04-23T03:01:51.694Z,9.762730
2023-04-23T03:02:51.694Z,9.762621
2023-04-23T03:03:51.704Z,9.762345
2023-04-23T03:04:51.595Z,9.762410
2023-04-23T03:05:51.590Z,9.762677
2023-04-23T03:06:51.596Z,9.762621
2023-04-23T03:07:51.580Z,9.762798
2023-04-23T03:08:51.555Z,9.762433
2023-04-23T03:09:51.576Z,9.762511
2023-04-23T03:10:51.542Z,9.762808
2023-04-23T03:11:51.542Z,9.762860
2023-04-23T03:12:51.519Z,9.762551
2023-04-23T03:13:51.536Z,9.762886
2023-04-23T03:14:51.500Z,9.762875
2023-04-23T03:15:51.489Z,9.762625
2023-04-23T03:16:51.503Z,9.762697
2023-04-23T03:17:51.501Z,9.762884
2023-04-23T03:18:51.486Z,9.762686
2023-04-23T03:19:51.455Z,9.762550
2023-04-23T03:20:51.457Z,9.762594
2023-04-23T03:21:51.450Z,9.762498
2023-04-23T03:22:51.419Z,9.762750
2023-04-23T03:23:51.415Z,9.762592
2023-04-23T03:24:51.407Z,9.762592
2023-04-23T03:25:51.392Z,9.762592
2023-04-23T03:26:51.404Z,9.762592
2023-04-23T03:27:51.390Z,9.762592
2023-04-23T03:28:51.378Z,9.762592
2023-04-23T03:29:51.351Z,9.762592
2023-04-23T03:30:51.390Z,9.762592
2023-04-23T03:31:51.342Z,9.762592
2023-04-23T03:32:51.375Z,9.762592
2023-04-23T03:33:51.320Z,9.762592
2023-04-23T03:34:51.312Z,9.762592
2023-04-23T03:35:51.303Z,9.762592
2023-04-23T03:36:51.316Z,9.762592
2023-04-23T03:37:51.272Z,9.762592
2023-04-23T03:38:51.258Z,9.762592
2023-04-23T03:39:51.264Z,9.762592
2023-04-23T03:40:51.255Z,9.762592
2023-04-23T03:41:51.237Z,9.762592
2023-04-23T03:42:51.242Z,9.762592
2023-04-23T03:43:51.232Z,9.762592
2023-04-23T03:44:51.206Z,9.762592
2023-04-23T03:45:51.280Z,9.762592
2023-04-23T03:46:51.212Z,9.762592
2023-04-23T03:47:51.179Z,9.762592
2023-04-23T03:48:51.164Z,9.762592
2023-04-23T03:49:51.148Z,9.762592
2023-04-23T03:50:51.144Z,9.762592
2023-04-23T03:51:51.145Z,9.762592
2023-04-23T03:52:51.124Z,9.762592
2023-04-23T03:53:51.122Z,9.762592
2023-04-23T03:54:51.106Z,9.762592
2023-04-23T03:55:51.103Z,9.762592
2023-04-23T03:56:51.102Z,9.762592
2023-04-23T03:57:51.078Z,9.762592
2023-04-23T03:58:51.069Z,9.762592
2023-04-23T03:59:51.054Z,9.762592
2023-04-23T04:00:51.053Z,9.762592
2023-04-23T04:01:51.063Z,9.762592
2023-04-23T04:02:51.203Z,9.762592
2023-04-23T04:03:51.362Z,9.762592
2023-04-23T04:04:51.194Z,9.762592
2023-04-23T04:05:51.098Z,9.762592
2023-04-23T04:06:50.993Z,9.762592
2023-04-23T04:07:50.983Z,9.762592
2023-04-23T04:08:50.961Z,9.762592
2023-04-23T04:09:50.958Z,9.762592
2023-04-23T04:10:50.948Z,9.762592
2023-04-23T04:11:52.868Z,9.762592
2023-04-23T04:12:50.928Z,9.762592
2023-04-23T04:13:50.926Z,9.762592
2023-04-23T04:14:50.913Z,9.762592
2023-04-23T04:15:50.917Z,9.762592
2023-04-23T04:16:50.885Z,9.762592
2023-04-23T04:17:50.914Z,9.762592
2023-04-23T04:18:50.871Z,9.762592
2023-04-23T04:19:50.857Z,9.762592
2023-04-23T04:20:50.845Z,9.762592
2023-04-23T04:21:50.832Z,9.762592
2023-04-23T04:22:50.840Z,9.762592
2023-04-23T04:23:50.814Z,9.762592
2023-04-23T04:24:50.807Z,9.762592
2023-04-23T04:25:50.799Z,9.762592
2023-04-23T04:26:50.788Z,9.762592
2023-04-23T04:27:50.786Z,9.762592
2023-04-23T04:28:50.765Z,9.762592
2023-04-23T04:29:50.774Z,9.762592
2023-04-23T04:30:50.747Z,9.762592
2023-04-23T04:31:50.947Z,9.762592
2023-04-23T04:32:50.809Z,9.762592
2023-04-23T04:33:50.723Z,9.762592
2023-04-23T04:34:50.712Z,9.762592
2023-04-23T04:35:50.700Z,9.762592
2023-04-23T04:36:50.684Z,9.762592
2023-04-23T04:37:50.688Z,9.762592
2023-04-23T04:38:50.662Z,9.762592
2023-04-23T04:39:50.663Z,9.762917
2023-04-23T04:40:50.660Z,9.762922
2023-04-23T04:41:50.642Z,9.762845
2023-04-23T04:42:50.646Z,9.762866
2023-04-23T04:43:50.618Z,9.762874
2023-04-23T04:44:50.610Z,9.762914
2023-04-23T04:45:50.599Z,9.762899
2023-04-23T04:46:50.645Z,9.762765
2023-04-23T04:47:50.610Z,9.762956
2023-04-23T04:48:50.569Z,9.762956
2023-04-23T04:49:50.554Z,9.762956
2023-04-23T04:50:50.547Z,9.762956
2023-04-23T04:51:50.536Z,9.762956
2023-04-23T04:52:50.549Z,9.763062
2023-04-23T04:53:50.538Z,9.762856
2023-04-23T04:54:50.506Z,9.762909
2023-04-23T04:55:50.496Z,9.762959
2023-04-23T04:56:50.484Z,9.762854
2023-04-23T04:57:50.491Z,9.762949
2023-04-23T04:58:50.465Z,9.762979
2023-04-23T04:59:50.455Z,9.762981
2023-04-23T05:00:50.487Z,9.763152
2023-04-23T05:01:50.440Z,9.763060
2023-04-23T05:02:50.557Z,9.762948
2023-04-23T05:03:50.564Z,9.762726
2023-04-23T05:04:50.428Z,9.762842
2023-04-23T05:05:50.403Z,9.762681
2023-04-23T05:06:50.388Z,9.763025
2023-04-23T05:07:50.393Z,9.763041
2023-04-23T05:08:50.369Z,9.763100
2023-04-23T05:09:50.359Z,9.762933
2023-04-23T05:10:50.381Z,9.762831
2023-04-23T05:11:50.334Z,9.762924
2023-04-23T05:12:50.341Z,9.763001
2023-04-23T05:13:50.364Z,9.762995
2023-04-23T05:14:51.749Z,9.763112
2023-04-23T05:15:50.298Z,9.763117
2023-04-23T05:16:50.327Z,9.763059
2023-04-23T05:17:50.348Z,9.763211
2023-04-23T05:18:50.273Z,9.763170
2023-04-23T05:19:50.260Z,9.763114
2023-04-23T05:20:50.258Z,9.763102
2023-04-23T05:21:50.245Z,9.762894
2023-04-23T05:22:50.244Z,9.762894
2023-04-23T05:23:50.220Z,9.763120
2023-04-23T05:24:50.214Z,9.763139
2023-04-23T05:25:50.678Z,9.763139
2023-04-23T05:26:50.296Z,9.763139
2023-04-23T05:27:50.183Z,9.763139
2023-04-23T05:28:50.176Z,9.763139
2023-04-23T05:29:50.160Z,9.763139
2023-04-23T05:30:50.148Z,9.763022
2023-04-23T05:31:50.338Z,9.762808
2023-04-23T05:32:50.166Z,9.763088
2023-04-23T05:33:50.910Z,9.763014
2023-04-23T05:34:50.109Z,9.763014
2023-04-23T05:35:50.097Z,9.763014
2023-04-23T05:36:50.092Z,9.763026
2023-04-23T05:37:50.083Z,9.762857
2023-04-23T05:38:50.165Z,9.762662
2023-04-23T05:39:50.060Z,9.762867
2023-04-23T05:40:50.043Z,9.762802
2023-04-23T05:41:50.029Z,9.762753
2023-04-23T05:42:50.041Z,9.762781
2023-04-23T05:43:50.026Z,9.762860
2023-04-23T05:44:50.003Z,9.762980
2023-04-23T05:45:50.049Z,9.762836
2023-04-23T05:46:49.996Z,9.762344
2023-04-23T05:47:50.008Z,9.762160
2023-04-23T05:48:49.964Z,9.762160
2023-04-23T05:49:49.957Z,9.762160
2023-04-23T05:50:49.953Z,9.762160
2023-04-23T05:51:49.936Z,9.762160
2023-04-23T05:52:49.940Z,9.762160
2023-04-23T05:53:49.913Z,9.762160
2023-04-23T05:54:49.908Z,9.762160
2023-04-23T05:55:49.899Z,9.762160
2023-04-23T05:56:49.884Z,9.762160
2023-04-23T05:57:49.887Z,9.762160
2023-04-23T05:58:49.868Z,9.762160
2023-04-23T05:59:49.853Z,9.762160
2023-04-23T06:00:49.883Z,9.762160
2023-04-23T06:01:49.908Z,9.762160
2023-04-23T06:02:49.928Z,9.762160
2023-04-23T06:03:49.897Z,9.762160
2023-04-23T06:04:50.736Z,9.762160
2023-04-23T06:05:49.840Z,9.762160
2023-04-23T06:06:49.799Z,9.762160
2023-04-23T06:07:49.817Z,9.762160
2023-04-23T06:08:49.767Z,9.762160
2023-04-23T06:09:49.752Z,9.762160
2023-04-23T06:10:49.753Z,9.762160
2023-04-23T06:11:49.740Z,9.762160
2023-04-23T06:12:49.741Z,9.762160
2023-04-23T06:13:49.725Z,9.762160
2023-04-23T06:14:49.712Z,9.762160
2023-04-23T06:15:49.717Z,9.763146
2023-04-23T06:16:49.694Z,9.763441
2023-04-23T06:17:49.712Z,9.762998
2023-04-23T06:18:50.617Z,9.762774
2023-04-23T06:19:49.658Z,9.762836
2023-04-23T06:20:49.648Z,9.762836
2023-04-23T06:21:49.635Z,9.762684
2023-04-23T06:22:49.680Z,9.762700
2023-04-23T06:23:49.625Z,9.762562
2023-04-23T06:24:49.611Z,9.762457
2023-04-23T06:25:52.471Z,9.762439
2023-04-23T06:26:49.598Z,9.762294
2023-04-23T06:27:49.577Z,9.762294
2023-04-23T06:28:49.587Z,9.762294
2023-04-23T06:29:49.564Z,9.762294
2023-04-23T06:30:49.553Z,9.762294
2023-04-23T06:31:49.630Z,9.762294
2023-04-23T06:32:49.543Z,9.762294
2023-04-23T06:33:49.531Z,9.762294
2023-04-23T06:34:59.350Z,9.762294
2023-04-23T06:35:51.509Z,9.762294
2023-04-23T06:36:49.479Z,9.762294
2023-04-23T06:37:49.464Z,9.762294
2023-04-23T06:38:49.471Z,9.762294
2023-04-23T06:39:49.452Z,9.762294
2023-04-23T06:40:49.441Z,9.762294
2023-04-23T06:41:49.445Z,9.762294
2023-04-23T06:42:49.422Z,9.762294
2023-04-23T06:43:49.429Z,9.762294
2023-04-23T06:44:49.411Z,9.762294
2023-04-23T06:45:49.398Z,9.762294
2023-04-23T06:46:49.408Z,9.762294
2023-04-23T06:47:49.466Z,9.762294
2023-04-23T06:48:49.372Z,9.762294
2023-04-23T06:49:49.349Z,9.762294
2023-04-23T06:50:49.343Z,9.762294
2023-04-23T06:51:49.327Z,9.762294
2023-04-23T06:52:49.314Z,9.762294
2023-04-23T06:53:49.324Z,9.762294
2023-04-23T06:54:49.303Z,9.762294
2023-04-23T06:55:49.282Z,9.762294
2023-04-23T06:56:49.278Z,9.762294
2023-04-23T06:57:49.264Z,9.762294
2023-04-23T06:58:49.273Z,9.762294
2023-04-23T06:59:49.254Z,9.762294
2023-04-23T07:00:49.244Z,9.762294
2023-04-23T07:01:49.222Z,9.762294
2023-04-23T07:02:49.302Z,9.762294
2023-04-23T07:03:49.354Z,9.762294
2023-04-23T07:04:49.217Z,9.762294
2023-04-23T07:05:49.206Z,9.762294
2023-04-23T07:06:49.184Z,9.762294
2023-04-23T07:07:49.177Z,9.762294
2023-04-23T07:08:49.181Z,9.762294
2023-04-23T07:09:49.158Z,9.762294
2023-04-23T07:10:49.150Z,9.762294
2023-04-23T07:11:49.149Z,9.762294
2023-04-23T07:12:49.136Z,9.762294
2023-04-23T07:13:49.126Z,9.762294
2023-04-23T07:14:50.110Z,9.762294
2023-04-23T07:15:49.153Z,9.762294
2023-04-23T07:16:49.127Z,9.762294
2023-04-23T07:17:49.205Z,9.762294
2023-04-23T07:18:49.084Z,9.762294
2023-04-23T07:19:49.079Z,9.762294
2023-04-23T07:20:49.058Z,9.762294
2023-04-23T07:21:49.052Z,9.762294
2023-04-23T07:22:49.038Z,9.762294
2023-04-23T07:23:49.039Z,9.762294
2023-04-23T07:24:49.019Z,9.762294
2023-04-23T07:25:49.016Z,9.762294
2023-04-23T07:26:48.999Z,9.762294
2023-04-23T07:27:48.992Z,9.762294
2023-04-23T07:28:50.752Z,9.762294
2023-04-23T07:29:48.971Z,9.762294
2023-04-23T07:30:48.963Z,9.762294
2023-04-23T07:31:48.986Z,9.762294
2023-04-23T07:32:48.963Z,9.762294
2023-04-23T07:33:48.931Z,9.762294
2023-04-23T07:34:48.939Z,9.762294
2023-04-23T07:35:48.916Z,9.762294
2023-04-23T07:36:48.905Z,9.762294
2023-04-23T07:37:48.899Z,9.762294
2023-04-23T07:38:48.885Z,9.762294
2023-04-23T07:39:49.157Z,9.762294
2023-04-23T07:40:48.868Z,9.762294
2023-04-23T07:41:48.858Z,9.762294
2023-04-23T07:42:48.841Z,9.762294
2023-04-23T07:43:48.834Z,9.762294
2023-04-23T07:44:48.839Z,9.762294
2023-04-23T07:45:48.825Z,9.762934
2023-04-23T07:46:48.798Z,9.762957
2023-04-23T07:47:48.833Z,9.762895
2023-04-23T07:48:48.796Z,9.762787
2023-04-23T07:49:48.783Z,9.762781
2023-04-23T07:50:48.770Z,9.762765
2023-04-23T07:51:48.753Z,9.762795
2023-04-23T07:52:48.744Z,9.762713
2023-04-23T07:53:48.735Z,9.762783
2023-04-23T07:54:48.740Z,9.762774
2023-04-23T07:55:48.729Z,9.762778
2023-04-23T07:56:48.707Z,9.762846
2023-04-23T07:57:48.693Z,9.762830
2023-04-23T07:58:48.692Z,9.762810
2023-04-23T07:59:48.685Z,9.762857
2023-04-23T08:00:48.667Z,9.762751
2023-04-23T08:01:48.650Z,9.762751
2023-04-23T08:02:48.740Z,9.762751
2023-04-23T08:03:49.028Z,9.762751
2023-04-23T08:04:48.931Z,9.762751
2023-04-23T08:05:48.614Z,9.762751
2023-04-23T08:06:48.610Z,9.762751
2023-04-23T08:07:48.600Z,9.762734
2023-04-23T08:08:48.666Z,9.762683
2023-04-23T08:09:49.618Z,9.762810
2023-04-23T08:10:48.559Z,9.762858
2023-04-23T08:11:49.486Z,9.762676
2023-04-23T08:12:48.692Z,9.762691
2023-04-23T08:13:48.543Z,9.762767
2023-04-23T08:14:49.202Z,9.762869
2023-04-23T08:15:48.539Z,9.762842
2023-04-23T08:16:48.499Z,9.762841
2023-04-23T08:17:48.522Z,9.762900
2023-04-23T08:19:03.724Z,9.762916
2023-04-23T08:19:50.492Z,9.762875
2023-04-23T08:20:49.185Z,9.762804
2023-04-23T08:21:48.453Z,9.763027
2023-04-23T08:22:48.446Z,9.762832
2023-04-23T08:23:48.436Z,9.762706
2023-04-23T08:24:48.442Z,9.762592
2023-04-23T08:25:48.421Z,9.762743
2023-04-23T08:26:48.399Z,9.762699
2023-04-23T08:27:48.394Z,9.762680
2023-04-23T08:28:48.383Z,9.763020
2023-04-23T08:29:48.395Z,9.762800
2023-04-23T08:30:48.371Z,9.762669
2023-04-23T08:31:48.368Z,9.763222
2023-04-23T08:32:48.411Z,9.763251
2023-04-23T08:33:48.334Z,9.763251
2023-04-23T08:34:48.337Z,9.763251
2023-04-23T08:35:48.321Z,9.763251
2023-04-23T08:36:48.306Z,9.763251
2023-04-23T08:37:48.295Z,9.763251
2023-04-23T08:38:48.289Z,9.763251
2023-04-23T08:39:48.285Z,9.763251
2023-04-23T08:40:48.268Z,9.763251
2023-04-23T08:41:48.279Z,9.763251
2023-04-23T08:42:48.255Z,9.763251
2023-04-23T08:43:48.257Z,9.763251
2023-04-23T08:44:48.234Z,9.763251
2023-04-23T08:45:48.231Z,9.763251
2023-04-23T08:46:48.235Z,9.763251
2023-04-23T08:47:48.255Z,9.763251
2023-04-23T08:48:48.205Z,9.763251
2023-04-23T08:49:48.188Z,9.763251
2023-04-23T08:50:48.167Z,9.763251
2023-04-23T08:51:48.156Z,9.763251
2023-04-23T08:52:48.153Z,9.763251
2023-04-23T08:53:48.132Z,9.763251
2023-04-23T08:54:48.147Z,9.763251
2023-04-23T08:55:48.121Z,9.763251
2023-04-23T08:56:48.111Z,9.763251
2023-04-23T08:57:48.101Z,9.763251
2023-04-23T08:58:48.072Z,9.763251
2023-04-23T08:59:49.086Z,9.763251
2023-04-23T09:00:48.102Z,9.763251
2023-04-23T09:01:48.073Z,9.763251
2023-04-23T09:02:48.241Z,9.763251
2023-04-23T09:03:48.154Z,9.763251
2023-04-23T09:04:50.772Z,9.763251
2023-04-23T09:05:48.025Z,9.763251
2023-04-23T09:06:48.008Z,9.763251
2023-04-23T09:07:48.006Z,9.763251
2023-04-23T09:08:48.005Z,9.763251
2023-04-23T09:09:48.013Z,9.763251
2023-04-23T09:10:47.964Z,9.763251
2023-04-23T09:11:47.959Z,9.763251
2023-04-23T09:12:47.951Z,9.763251
2023-04-23T09:13:47.931Z,9.763251
2023-04-23T09:14:47.940Z,9.763251
2023-04-23T09:15:47.924Z,9.763251
2023-04-23T09:16:47.942Z,9.763251
2023-04-23T09:17:47.954Z,9.763251
2023-04-23T09:18:47.882Z,9.763251
2023-04-23T09:19:48.742Z,9.763251
2023-04-23T09:20:47.873Z,9.763251
2023-04-23T09:21:47.854Z,9.763251
2023-04-23T09:22:48.026Z,9.763251
2023-04-23T09:23:47.857Z,9.763251
2023-04-23T09:24:48.892Z,9.763251
2023-04-23T09:25:47.820Z,9.763251
2023-04-23T09:28:15.015Z,9.763251
2023-04-23T09:29:15.086Z,9.763251
2023-04-23T09:30:15.009Z,9.763251
2023-04-23T09:31:14.985Z,9.763251
2023-04-23T09:32:15.065Z,9.763251
2023-04-23T09:33:14.970Z,9.763251
2023-04-23T09:34:14.946Z,9.763251
2023-04-23T09:35:17.167Z,9.763251
2023-04-23T09:36:14.978Z,9.763251
2023-04-23T09:37:14.926Z,9.763251
2023-04-23T09:38:14.938Z,9.763251
2023-04-23T09:39:14.937Z,9.763251
2023-04-23T09:40:14.927Z,9.763251
2023-04-23T09:41:14.882Z,9.763251
2023-04-23T09:42:14.873Z,9.763251
2023-04-23T09:43:14.863Z,9.763251
2023-04-23T09:44:14.871Z,9.763251
2023-04-23T09:45:14.864Z,9.763251
2023-04-23T09:46:14.867Z,9.763251
2023-04-23T09:47:14.819Z,9.763251
2023-04-23T09:48:14.813Z,9.763251
2023-04-23T09:49:14.808Z,9.763251
2023-04-23T09:50:14.813Z,9.763251
2023-04-23T09:51:14.814Z,9.763251
2023-04-23T09:52:14.777Z,9.763251
2023-04-23T09:53:14.776Z,9.763251
2023-04-23T09:54:14.755Z,9.763453
2023-04-23T09:55:14.752Z,9.763440
2023-04-23T09:56:15.737Z,9.763785
2023-04-23T09:57:14.737Z,9.763785
2023-04-23T09:58:14.725Z,9.764567
2023-04-23T09:59:15.708Z,9.764567
2023-04-23T10:00:15.407Z,9.763390
2023-04-23T10:01:14.709Z,9.762992
2023-04-23T10:02:14.801Z,9.762858
2023-04-23T10:03:14.850Z,9.762826
2023-04-23T10:04:14.952Z,9.762836
2023-04-23T10:06:25.926Z,9.762748
2023-04-23T10:07:20.126Z,9.762713
2023-04-23T10:08:15.615Z,9.762779
2023-04-23T10:09:14.604Z,9.762788
2023-04-23T10:10:14.592Z,9.762734
2023-04-23T10:13:15.563Z,9.762753
2023-04-23T10:14:14.550Z,9.762779
2023-04-23T10:15:14.556Z,9.762785
2023-04-23T10:16:22.448Z,9.762755
2023-04-23T10:17:16.524Z,9.762773
2023-04-23T10:18:14.513Z,9.762760
2023-04-23T10:19:14.509Z,9.762834
2023-04-23T10:20:14.505Z,9.762870
2023-04-23T10:21:14.492Z,9.762761
2023-04-23T10:23:15.468Z,9.762735
2023-04-23T10:24:14.451Z,9.762715
2023-04-23T10:25:14.449Z,9.762781
2023-04-23T10:26:14.462Z,9.762835
2023-04-23T10:27:28.446Z,9.762820
2023-04-23T10:28:16.420Z,9.762760
2023-04-23T10:29:14.409Z,9.762845
2023-04-23T10:30:14.399Z,9.762912
2023-04-23T10:31:14.424Z,9.762718
2023-04-23T10:32:14.385Z,9.762906
2023-04-23T10:33:26.487Z,9.762507
2023-04-23T10:34:16.381Z,9.762416
2023-04-23T10:35:14.350Z,9.762227
2023-04-23T10:36:14.359Z,9.762540
2023-04-23T10:37:14.340Z,9.762587
2023-04-23T10:38:14.326Z,9.762854
2023-04-23T10:39:20.808Z,9.762663
2023-04-23T10:40:15.436Z,9.762645
2023-04-23T10:41:14.305Z,9.762743
2023-04-23T10:42:14.295Z,9.762792
2023-04-23T10:43:14.270Z,9.762769
2023-04-23T10:44:16.057Z,9.762747
2023-04-23T10:45:23.546Z,9.762659
2023-04-23T10:46:16.304Z,9.762694
2023-04-23T10:47:14.267Z,9.762677
2023-04-23T10:48:14.245Z,9.762709
2023-04-23T10:49:14.226Z,9.762716
2023-04-23T10:50:14.230Z,9.762697
2023-04-23T10:52:19.539Z,9.762686
2023-04-23T10:53:16.168Z,9.762717
2023-04-23T10:54:14.160Z,9.762700
2023-04-23T10:55:14.167Z,9.762836
2023-04-23T10:56:14.154Z,9.762803
2023-04-23T10:57:14.226Z,9.762769
2023-04-23T10:58:14.120Z,9.762756
2023-04-23T10:59:14.119Z,9.762914
2023-04-23T11:00:14.102Z,9.762669
2023-04-23T11:01:14.111Z,9.762682
2023-04-23T11:02:14.165Z,9.762746
2023-04-23T11:03:14.175Z,9.762710
2023-04-23T11:04:14.459Z,9.762770
2023-04-23T11:05:14.055Z,9.762906
2023-04-23T11:06:14.056Z,9.762834
2023-04-23T11:07:14.044Z,9.762529
2023-04-23T11:08:19.356Z,9.762786
2023-04-23T11:09:16.017Z,9.762820
2023-04-23T11:10:14.089Z,9.762794
2023-04-23T11:11:14.013Z,9.762689
2023-04-23T11:12:14.007Z,9.762858
2023-04-23T11:13:13.982Z,9.762768
2023-04-23T11:14:13.972Z,9.762708
2023-04-23T11:15:13.970Z,9.762543
2023-04-23T11:16:13.996Z,9.762712
2023-04-23T11:17:13.944Z,9.762842
2023-04-23T11:18:13.951Z,9.762782
2023-04-23T11:19:13.931Z,9.762688
2023-04-23T11:20:14.179Z,9.762681
2023-04-23T11:21:13.908Z,9.762697
2023-04-23T11:22:13.890Z,9.762612
2023-04-23T11:23:13.879Z,9.762763
2023-04-23T11:24:13.874Z,9.762649
2023-04-23T11:25:13.880Z,9.762614
2023-04-23T11:26:13.870Z,9.762750
2023-04-23T11:27:13.844Z,9.762692
2023-04-23T11:28:13.840Z,9.762694
2023-04-23T11:29:13.827Z,9.762798
2023-04-23T11:30:13.939Z,9.762818
2023-04-23T11:31:13.818Z,9.762836
2023-04-23T11:32:13.826Z,9.762783
2023-04-23T11:33:13.817Z,9.762811
2023-04-23T11:34:13.764Z,9.763025
2023-04-23T11:35:14.756Z,9.762838
2023-04-23T11:36:13.766Z,9.762527
2023-04-23T11:37:13.742Z,9.762568
2023-04-23T11:38:13.730Z,9.762678
2023-04-23T11:39:13.723Z,9.762719
2023-04-23T11:40:13.708Z,9.762692
2023-04-23T11:41:13.708Z,9.762673
2023-04-23T11:42:13.701Z,9.762794
2023-04-23T11:43:13.681Z,9.762852
2023-04-23T11:44:13.679Z,9.762878
2023-04-23T11:45:13.673Z,9.762888
2023-04-23T11:46:13.664Z,9.762677
2023-04-23T11:47:13.681Z,9.762956
2023-04-23T11:48:13.635Z,9.763240
2023-04-23T11:49:13.634Z,9.762933
2023-04-23T11:50:13.625Z,9.762528
2023-04-23T11:51:13.622Z,9.762801